createdAt,value
2022-08-12T00:02:08.017Z,5.25
2022-08-12T00:04:53.278Z,2.78
2022-08-12T00:07:39.251Z,5.95
2022-08-12T00:10:24.700Z,4.40
2022-08-12T00:13:11.721Z,5.13
2022-08-12T00:15:57.407Z,3.60
2022-08-12T00:18:42.836Z,3.00
2022-08-12T00:21:31.282Z,3.92
2022-08-12T00:24:18.115Z,3.07
2022-08-12T00:27:06.115Z,4.25
2022-08-12T00:29:52.689Z,3.67
2022-08-12T00:32:37.969Z,5.55
2022-08-12T00:35:24.400Z,5.28
2022-08-12T00:38:20.075Z,5.72
2022-08-12T00:41:05.518Z,5.25
2022-08-12T00:43:35.114Z,7.50
2022-08-12T00:46:22.154Z,3.67
2022-08-12T00:48:49.577Z,4.78
2022-08-12T00:51:16.499Z,5.68
2022-08-12T00:53:43.100Z,4.28
2022-08-12T00:56:10.853Z,6.35
2022-08-12T00:58:44.696Z,8.00
2022-08-12T01:01:11.259Z,5.20
2022-08-12T01:03:59.619Z,4.35
2022-08-12T01:06:50.905Z,4.38
2022-08-12T01:09:39.309Z,5.18
2022-08-12T01:12:08.361Z,4.15
2022-08-12T01:14:35.160Z,4.22
2022-08-12T01:17:01.898Z,5.10
2022-08-12T01:19:28.658Z,8.77
2022-08-12T01:22:23.496Z,5.68
2022-08-12T01:24:59.099Z,3.83
2022-08-12T01:27:27.492Z,4.05
2022-08-12T01:29:56.920Z,5.53
2022-08-12T01:35:01.375Z,8.52
2022-08-12T01:37:30.563Z,4.75
2022-08-12T01:40:33.985Z,3.85
2022-08-12T01:42:50.410Z,3.78
2022-08-12T01:45:24.763Z,3.85
2022-08-12T01:48:05.871Z,6.38
2022-08-12T01:50:44.789Z,3.28
2022-08-12T01:53:15.925Z,6.85
2022-08-12T01:55:46.339Z,5.53
2022-08-12T01:58:25.752Z,4.25
2022-08-12T02:04:18.590Z,2.92
2022-08-12T02:07:24.007Z,3.70
2022-08-12T02:10:49.984Z,5.78
2022-08-12T02:13:49.139Z,3.38
2022-08-12T02:16:30.340Z,4.93
2022-08-12T02:19:28.545Z,5.57
2022-08-12T02:22:20.452Z,9.57
2022-08-12T02:24:48.970Z,8.63
2022-08-12T02:27:19.018Z,7.72
2022-08-12T02:29:45.573Z,5.15
2022-08-12T02:32:13.680Z,6.38
2022-08-12T02:34:43.889Z,8.73
2022-08-12T02:37:15.602Z,7.20
2022-08-12T02:39:49.051Z,9.32
2022-08-12T02:42:18.979Z,10.23
2022-08-12T02:44:48.899Z,9.15
2022-08-12T02:47:18.285Z,15.93
2022-08-12T02:50:05.931Z,5.68
2022-08-12T02:52:34.613Z,5.05
2022-08-12T02:55:28.806Z,5.32
2022-08-12T02:58:07.074Z,11.05
2022-08-12T03:00:40.098Z,11.70
2022-08-12T03:03:09.259Z,9.68
2022-08-12T03:05:46.801Z,11.65
2022-08-12T03:08:31.571Z,12.35
2022-08-12T03:11:11.949Z,14.20
2022-08-12T03:13:47.127Z,11.55
2022-08-12T03:16:14.819Z,10.88
2022-08-12T03:18:46.269Z,11.63
2022-08-12T03:21:16.981Z,13.57
2022-08-12T03:23:45.857Z,13.20
2022-08-12T03:26:13.186Z,13.02
2022-08-12T03:28:50.836Z,14.20
2022-08-12T03:31:20.180Z,21.50
2022-08-12T03:34:00.915Z,13.95
2022-08-12T03:36:36.373Z,9.77
2022-08-12T03:39:18.229Z,11.93
2022-08-12T03:42:06.086Z,12.13
2022-08-12T03:45:42.065Z,9.80
2022-08-12T03:48:37.936Z,12.65
2022-08-12T03:51:23.999Z,11.43
2022-08-12T03:54:11.274Z,15.93
2022-08-12T03:56:58.112Z,13.88
2022-08-12T03:59:43.517Z,15.23
2022-08-12T04:02:16.836Z,15.18
2022-08-12T04:04:45.611Z,15.68
2022-08-12T04:07:13.961Z,14.68
2022-08-12T04:09:42.697Z,14.88
2022-08-12T04:12:30.001Z,11.55
2022-08-12T04:15:00.265Z,13.90
2022-08-12T04:17:28.511Z,12.98
2022-08-12T04:19:57.281Z,14.80
2022-08-12T04:22:30.708Z,11.55
2022-08-12T04:25:01.221Z,11.98
2022-08-12T04:27:30.046Z,20.48
2022-08-12T04:30:29.705Z,10.52
2022-08-12T04:32:44.707Z,10.40
2022-08-12T04:35:12.486Z,10.70
2022-08-12T04:37:59.003Z,13.70
2022-08-12T04:40:28.218Z,9.90
2022-08-12T04:42:56.003Z,9.27
2022-08-12T04:45:22.867Z,8.52
2022-08-12T04:47:49.525Z,8.88
2022-08-12T04:50:33.825Z,9.52
2022-08-12T04:53:02.626Z,13.30
2022-08-12T04:55:29.970Z,7.65
2022-08-12T04:57:56.513Z,9.35
2022-08-12T05:00:23.053Z,6.40
2022-08-12T05:02:49.647Z,9.40
2022-08-12T05:05:19.278Z,8.23
2022-08-12T05:10:33.978Z,10.52
2022-08-12T05:13:09.265Z,6.28
2022-08-12T05:15:53.091Z,8.23
2022-08-12T05:18:29.134Z,6.43
2022-08-12T05:20:56.637Z,12.27
2022-08-12T05:23:23.509Z,7.60
2022-08-12T05:25:56.226Z,10.57
2022-08-12T05:28:24.416Z,10.70
2022-08-12T05:30:51.826Z,10.25
2022-08-12T05:33:18.622Z,11.38
2022-08-12T05:35:47.657Z,13.88
2022-08-12T05:38:34.927Z,9.05
2022-08-12T05:41:02.842Z,8.30
2022-08-12T05:43:29.573Z,8.05
2022-08-12T05:45:56.162Z,8.45
2022-08-12T05:48:22.624Z,9.15
2022-08-12T05:50:49.209Z,9.98
2022-08-12T05:53:16.265Z,16.67
2022-08-12T05:55:42.788Z,14.05
2022-08-12T05:58:09.314Z,13.43
2022-08-12T06:00:37.153Z,11.38
2022-08-12T06:03:05.953Z,7.90
2022-08-12T06:05:42.990Z,11.10
2022-08-12T06:08:21.747Z,11.40
2022-08-12T06:10:50.168Z,11.15
2022-08-12T06:13:27.883Z,11.40
2022-08-12T06:15:55.789Z,8.47
2022-08-12T06:18:26.498Z,9.32
2022-08-12T06:21:01.693Z,10.57
2022-08-12T06:23:29.488Z,16.35
2022-08-12T06:25:56.904Z,6.88
2022-08-12T06:28:23.593Z,9.43
2022-08-12T06:31:08.644Z,7.43
2022-08-12T06:33:55.345Z,12.85
2022-08-12T06:36:25.222Z,6.50
2022-08-12T06:38:57.464Z,7.53
2022-08-12T06:42:21.266Z,9.55
2022-08-12T06:44:45.551Z,7.72
2022-08-12T06:47:12.131Z,8.93
2022-08-12T06:49:38.655Z,10.25
2022-08-12T06:52:07.325Z,11.07
2022-08-12T06:54:35.342Z,8.75
2022-08-12T06:57:04.816Z,5.78
2022-08-12T06:59:32.350Z,10.80
2022-08-12T07:01:58.895Z,10.77
2022-08-12T07:04:36.335Z,8.63
2022-08-12T07:07:06.044Z,6.07
2022-08-12T07:10:06.653Z,5.95
2022-08-12T07:12:19.667Z,6.32
2022-08-12T07:14:50.500Z,11.45
2022-08-12T07:17:17.457Z,8.50
2022-08-12T07:19:45.421Z,6.55
2022-08-12T07:22:14.107Z,7.25
2022-08-12T07:24:40.860Z,6.75
2022-08-12T07:27:07.457Z,8.95
2022-08-12T07:29:57.913Z,6.53
2022-08-12T07:32:24.511Z,11.00
2022-08-12T07:34:52.385Z,7.65
2022-08-12T07:37:18.998Z,6.50
2022-08-12T07:39:51.175Z,4.32
2022-08-12T07:42:27.252Z,5.18
2022-08-12T07:44:53.821Z,9.18
2022-08-12T07:47:20.399Z,3.45
2022-08-12T07:50:04.147Z,4.53
2022-08-12T07:52:34.863Z,7.65
2022-08-12T07:55:02.442Z,9.38
2022-08-12T07:57:29.002Z,3.78
2022-08-12T07:59:56.181Z,8.65
2022-08-12T08:02:26.725Z,3.20
2022-08-12T08:04:56.682Z,4.95
2022-08-12T08:07:25.596Z,9.50
2022-08-12T08:09:58.608Z,6.40
2022-08-12T08:13:01.686Z,3.53
2022-08-12T08:16:01.913Z,4.40
2022-08-12T08:18:27.469Z,5.60
2022-08-12T08:20:56.307Z,9.50
2022-08-12T08:23:29.328Z,4.90
2022-08-12T08:26:01.594Z,7.55
2022-08-12T08:28:28.092Z,8.77
2022-08-12T08:30:54.558Z,13.63
2022-08-12T08:33:24.838Z,5.10
2022-08-12T08:36:16.412Z,4.38
2022-08-12T08:38:55.019Z,10.43
2022-08-12T08:42:19.027Z,9.57
2022-08-12T08:44:30.508Z,4.65
2022-08-12T08:46:57.169Z,8.55
2022-08-12T08:49:23.848Z,5.78
2022-08-12T08:51:50.331Z,6.35
2022-08-12T08:54:17.424Z,4.85
2022-08-12T08:56:44.196Z,3.28
2022-08-12T08:59:12.601Z,6.07
2022-08-12T09:01:40.624Z,7.85
2022-08-12T09:07:00.137Z,6.10
2022-08-12T09:09:34.062Z,2.90
2022-08-12T09:12:32.280Z,4.65
2022-08-12T09:14:58.895Z,3.17
2022-08-12T09:17:26.018Z,7.50
2022-08-12T09:19:58.187Z,6.50
2022-08-12T09:22:29.251Z,7.13
2022-08-12T09:24:59.854Z,4.30
2022-08-12T09:28:04.104Z,6.68
2022-08-12T09:30:18.311Z,3.40
2022-08-12T09:33:15.247Z,4.53
2022-08-12T09:36:02.916Z,2.63
2022-08-12T09:42:09.600Z,4.28
2022-08-12T09:44:37.714Z,3.03
2022-08-12T09:46:56.114Z,3.42
2022-08-12T09:49:24.938Z,2.75
2022-08-12T09:51:55.191Z,4.45
2022-08-12T09:54:33.542Z,4.13
2022-08-12T09:58:08.001Z,3.75
2022-08-12T10:00:16.186Z,7.80
2022-08-12T10:03:06.200Z,4.25
2022-08-12T10:06:26.510Z,5.90
2022-08-12T10:08:24.456Z,2.80
2022-08-12T10:11:20.050Z,6.07
2022-08-12T10:13:48.703Z,2.55
2022-08-12T10:16:22.245Z,5.23
2022-08-12T10:18:57.129Z,5.15
2022-08-12T10:21:36.335Z,2.35
2022-08-12T10:24:23.282Z,8.13
2022-08-12T10:27:08.889Z,7.97
2022-08-12T10:30:37.672Z,2.83
2022-08-12T10:32:44.373Z,4.03
2022-08-12T10:35:15.648Z,6.20
2022-08-12T10:38:38.229Z,3.00
2022-08-12T10:40:33.120Z,8.15
2022-08-12T10:43:19.175Z,6.78
2022-08-12T10:45:49.548Z,4.25
2022-08-12T10:48:21.779Z,3.63
2022-08-12T10:51:01.500Z,5.55
2022-08-12T10:53:44.987Z,5.20
2022-08-12T10:56:17.566Z,5.47
2022-08-12T10:58:47.103Z,3.00
2022-08-12T11:02:05.258Z,6.22
2022-08-12T11:04:28.132Z,3.58
2022-08-12T11:07:08.461Z,5.47
2022-08-12T11:10:00.354Z,3.08
2022-08-12T11:12:54.807Z,6.03
2022-08-12T11:15:20.888Z,6.05
2022-08-12T11:17:54.183Z,8.07
2022-08-12T11:20:24.228Z,2.75
2022-08-12T11:23:01.770Z,5.85
2022-08-12T11:25:55.412Z,3.78
2022-08-12T11:28:33.307Z,4.28
2022-08-12T11:31:02.657Z,2.83
2022-08-12T11:34:04.820Z,4.13
2022-08-12T11:36:16.654Z,5.80
2022-08-12T11:38:50.458Z,7.80
2022-08-12T11:41:28.084Z,2.58
2022-08-12T11:43:59.355Z,3.75
2022-08-12T11:46:26.001Z,3.40
2022-08-12T11:48:52.906Z,4.68
2022-08-12T11:51:20.798Z,3.22
2022-08-12T11:53:57.861Z,2.67
2022-08-12T11:56:38.773Z,1.70
2022-08-12T12:02:02.280Z,3.10
2022-08-12T12:04:31.385Z,2.92
2022-08-12T12:07:07.224Z,4.05
2022-08-12T12:09:51.964Z,6.95
2022-08-12T12:12:24.846Z,2.58
2022-08-12T12:14:55.020Z,6.57
2022-08-12T12:17:26.083Z,5.85
2022-08-12T12:19:55.046Z,11.13
2022-08-12T12:22:23.165Z,5.22
2022-08-12T12:24:53.952Z,1.60
2022-08-12T12:27:42.289Z,5.13
2022-08-12T12:30:18.043Z,2.63
2022-08-12T12:32:53.935Z,3.63
2022-08-12T12:36:06.221Z,7.15
2022-08-12T12:38:12.598Z,3.95
2022-08-12T12:40:43.865Z,5.53
2022-08-12T12:43:11.268Z,3.53
2022-08-12T12:45:39.313Z,6.47
2022-08-12T12:48:11.855Z,1.70
2022-08-12T12:50:42.742Z,4.28
2022-08-12T12:54:06.439Z,1.90
2022-08-12T12:56:15.641Z,1.92
2022-08-12T12:58:43.332Z,3.15
2022-08-12T13:01:27.944Z,3.57
2022-08-12T13:04:01.649Z,4.90
2022-08-12T13:06:31.985Z,4.70
2022-08-12T13:09:03.040Z,2.25
2022-08-12T13:11:41.952Z,4.70
2022-08-12T13:14:28.151Z,9.00
2022-08-12T13:17:00.991Z,4.20
2022-08-12T13:19:38.862Z,2.25
2022-08-12T13:22:18.186Z,4.15
2022-08-12T13:24:45.170Z,2.83
2022-08-12T13:27:11.632Z,6.10
2022-08-12T13:29:39.229Z,5.13
2022-08-12T13:32:18.605Z,2.05
2022-08-12T13:34:53.393Z,4.55
2022-08-12T13:37:54.395Z,2.25
2022-08-12T13:40:18.363Z,2.70
2022-08-12T13:42:49.070Z,2.95
2022-08-12T13:45:17.759Z,3.13
2022-08-12T13:48:19.698Z,4.47
2022-08-12T13:50:46.534Z,5.32
2022-08-12T13:53:24.173Z,3.05
2022-08-12T13:56:01.654Z,5.28
2022-08-12T13:58:30.051Z,6.38
2022-08-12T14:00:58.131Z,3.45
2022-08-12T14:03:28.644Z,5.10
2022-08-12T14:06:15.324Z,3.97
2022-08-12T14:08:43.210Z,1.88
2022-08-12T14:11:12.608Z,2.38
2022-08-12T14:14:03.375Z,4.13
2022-08-12T14:16:37.737Z,1.50
2022-08-12T14:19:22.237Z,3.42
2022-08-12T14:22:01.154Z,5.03
2022-08-12T14:27:03.598Z,4.18
2022-08-12T14:29:38.238Z,6.88
2022-08-12T14:32:22.383Z,5.13
2022-08-12T14:34:51.472Z,3.03
2022-08-12T14:37:56.196Z,3.00
2022-08-12T14:40:18.626Z,2.35
2022-08-12T14:42:47.062Z,3.05
2022-08-12T14:45:13.823Z,5.30
2022-08-12T14:47:53.649Z,6.70
2022-08-12T14:50:37.369Z,1.80
2022-08-12T14:55:13.870Z,6.68
2022-08-12T14:59:20.635Z,4.72
2022-08-12T15:01:50.482Z,6.15
2022-08-12T15:04:26.228Z,2.65
2022-08-12T15:06:53.065Z,5.72
2022-08-12T15:09:28.700Z,2.17
2022-08-12T15:12:03.095Z,1.90
2022-08-12T15:14:31.027Z,5.07
2022-08-12T15:17:00.522Z,2.97
2022-08-12T15:20:09.240Z,5.80
2022-08-12T15:22:36.884Z,1.92
2022-08-12T15:25:07.151Z,7.20
2022-08-12T15:28:04.198Z,6.20
2022-08-12T15:30:30.937Z,5.53
2022-08-12T15:32:57.611Z,5.93
2022-08-12T15:35:27.425Z,4.18
2022-08-12T15:38:09.600Z,5.90
2022-08-12T15:44:14.176Z,4.75
2022-08-12T15:46:15.366Z,1.92
2022-08-12T15:48:46.953Z,6.57
2022-08-12T15:51:57.406Z,4.63
2022-08-12T15:54:33.352Z,2.28
2022-08-12T15:57:07.949Z,3.20
2022-08-12T16:00:04.076Z,5.93
2022-08-12T16:02:23.349Z,5.35
2022-08-12T16:04:53.729Z,4.47
2022-08-12T16:07:29.720Z,3.22
2022-08-12T16:10:06.756Z,1.98
2022-08-12T16:13:12.101Z,4.75
2022-08-12T16:16:01.497Z,2.00
2022-08-12T16:18:31.329Z,3.10
2022-08-12T16:20:58.190Z,5.30
2022-08-12T16:23:51.991Z,3.60
2022-08-12T16:26:15.282Z,2.30
2022-08-12T16:28:47.434Z,2.55
2022-08-12T16:31:22.493Z,5.20
2022-08-12T16:33:59.284Z,8.77
2022-08-12T16:36:27.978Z,4.35
2022-08-12T16:38:54.642Z,6.28
2022-08-12T16:41:22.604Z,1.60
2022-08-12T16:43:50.451Z,3.67
2022-08-12T16:46:31.086Z,6.30
2022-08-12T16:48:59.672Z,2.50
2022-08-12T16:51:37.572Z,1.63
2022-08-12T16:54:14.191Z,1.70
2022-08-12T16:56:54.840Z,3.75
2022-08-12T16:59:30.844Z,3.33
2022-08-12T17:02:31.755Z,4.38
2022-08-12T17:05:03.200Z,6.85
2022-08-12T17:07:36.444Z,4.45
2022-08-12T17:10:13.985Z,1.90
2022-08-12T17:12:45.329Z,6.65
2022-08-12T17:15:50.856Z,5.05
2022-08-12T17:18:42.161Z,4.43
2022-08-12T17:20:49.076Z,3.70
2022-08-12T17:23:17.993Z,4.57
2022-08-12T17:25:52.355Z,1.92
2022-08-12T17:28:21.300Z,2.08
2022-08-12T17:30:57.245Z,2.80
2022-08-12T17:33:27.701Z,3.10
2022-08-12T17:36:05.554Z,3.58
2022-08-12T17:38:34.672Z,2.17
2022-08-12T17:41:22.483Z,4.55
2022-08-12T17:43:58.473Z,8.23
2022-08-12T17:46:33.674Z,3.22
2022-08-12T17:49:00.494Z,2.08
2022-08-12T17:51:50.126Z,2.13
2022-08-12T17:54:17.454Z,5.50
2022-08-12T17:56:47.145Z,6.55
2022-08-12T17:59:13.927Z,3.17
2022-08-12T18:02:02.653Z,6.35
2022-08-12T18:04:35.444Z,3.10
2022-08-12T18:07:02.814Z,2.35
2022-08-12T18:09:36.183Z,6.20
2022-08-12T18:12:24.778Z,2.38
2022-08-12T18:15:01.013Z,4.88
2022-08-12T18:17:34.725Z,6.30
2022-08-12T18:20:15.415Z,9.07
2022-08-12T18:22:43.428Z,3.03
2022-08-12T18:26:13.016Z,4.30
2022-08-12T18:28:16.126Z,5.15
2022-08-12T18:30:53.293Z,2.35
2022-08-12T18:33:24.737Z,2.25
2022-08-12T18:35:53.357Z,2.95
2022-08-12T18:38:22.443Z,1.77
2022-08-12T18:41:10.082Z,5.22
2022-08-12T18:43:57.650Z,2.55
2022-08-12T18:46:55.376Z,2.40
2022-08-12T18:49:31.986Z,2.58
2022-08-12T18:52:04.185Z,1.85
2022-08-12T18:54:34.853Z,2.60
2022-08-12T18:57:07.136Z,3.95
2022-08-12T19:00:01.781Z,2.97
2022-08-12T19:02:36.699Z,4.75
2022-08-12T19:05:09.947Z,3.72
2022-08-12T19:07:57.779Z,4.43
2022-08-12T19:10:32.083Z,3.22
2022-08-12T19:13:24.365Z,7.78
2022-08-12T19:15:57.375Z,3.63
2022-08-12T19:18:29.789Z,3.60
2022-08-12T19:21:00.407Z,4.82
2022-08-12T19:23:35.566Z,6.65
2022-08-12T19:26:05.030Z,6.75
2022-08-12T19:28:34.808Z,5.95
2022-08-12T19:31:50.864Z,4.38
2022-08-12T19:38:03.957Z,7.47
2022-08-12T19:40:32.531Z,4.57
2022-08-12T19:43:17.272Z,4.38
2022-08-12T19:45:53.114Z,4.68
2022-08-12T19:48:23.465Z,3.92
2022-08-12T19:50:53.548Z,6.57
2022-08-12T19:53:24.107Z,3.22
2022-08-12T19:55:53.392Z,5.85
2022-08-12T20:00:53.408Z,4.18
2022-08-12T20:03:38.505Z,3.42
2022-08-12T20:06:13.646Z,2.70
2022-08-12T20:08:48.614Z,7.70
2022-08-12T20:12:11.401Z,2.80
2022-08-12T20:14:04.439Z,2.60
2022-08-12T20:16:57.457Z,4.70
2022-08-12T20:19:52.697Z,6.07
2022-08-12T20:22:24.384Z,3.13
2022-08-12T20:24:57.835Z,4.80
2022-08-12T20:28:03.280Z,4.55
2022-08-12T20:30:52.322Z,4.45
2022-08-12T20:33:18.896Z,2.85
2022-08-12T20:36:06.496Z,3.20
2022-08-12T20:38:45.865Z,4.13
2022-08-12T20:41:17.646Z,3.75
2022-08-12T20:43:59.244Z,2.67
2022-08-12T20:46:36.265Z,2.15
2022-08-12T20:49:17.391Z,1.33
2022-08-12T20:51:51.052Z,1.92
2022-08-12T20:54:23.131Z,1.77
2022-08-12T20:57:09.818Z,4.75
2022-08-12T20:59:49.544Z,3.10
2022-08-12T21:02:24.392Z,8.38
2022-08-12T21:05:19.599Z,12.82
2022-08-12T21:08:02.550Z,18.88
2022-08-12T21:10:35.900Z,15.32
2022-08-12T21:13:20.178Z,20.48
2022-08-12T21:15:54.603Z,16.00
2022-08-12T21:18:30.822Z,18.83
2022-08-12T21:20:59.542Z,17.13
2022-08-12T21:23:30.837Z,14.38
2022-08-12T21:26:12.376Z,15.23
2022-08-12T21:29:04.252Z,12.52
2022-08-12T21:32:36.732Z,8.07
2022-08-12T21:34:42.478Z,6.03
2022-08-12T21:37:26.907Z,6.00
2022-08-12T21:43:01.097Z,2.85
2022-08-12T21:45:47.811Z,2.55
2022-08-12T21:48:20.033Z,4.03
2022-08-12T21:50:46.540Z,2.13
2022-08-12T21:53:17.993Z,2.38
2022-08-12T21:55:47.702Z,5.22
2022-08-12T21:58:21.019Z,2.80
2022-08-12T22:00:47.771Z,3.08
2022-08-12T22:04:03.623Z,1.48
2022-08-12T22:06:30.846Z,1.80
2022-08-12T22:09:16.711Z,3.35
2022-08-12T22:11:49.056Z,2.40
2022-08-12T22:16:53.078Z,2.97
2022-08-12T22:19:20.863Z,2.42
2022-08-12T22:21:53.362Z,2.63
2022-08-12T22:24:26.230Z,2.00
2022-08-12T22:27:18.215Z,3.25
2022-08-12T22:30:07.216Z,3.10
2022-08-12T22:32:34.202Z,4.78
2022-08-12T22:35:23.172Z,7.72
2022-08-12T22:37:50.709Z,7.03
2022-08-12T22:40:20.404Z,5.68
2022-08-12T22:43:06.040Z,7.13
2022-08-12T22:45:58.877Z,6.57
2022-08-12T22:48:26.400Z,9.75
2022-08-12T22:50:56.512Z,8.25
2022-08-12T22:53:26.510Z,3.95
2022-08-12T22:56:06.808Z,8.63
2022-08-12T22:58:40.197Z,8.20
2022-08-12T23:01:07.879Z,8.93
2022-08-12T23:03:48.828Z,9.48
2022-08-12T23:06:19.847Z,6.70
2022-08-12T23:08:48.079Z,8.05
2022-08-12T23:11:17.229Z,5.93
2022-08-12T23:13:54.658Z,6.40
2022-08-12T23:16:31.563Z,6.53
2022-08-12T23:19:18.033Z,8.27
2022-08-12T23:24:41.184Z,7.05
2022-08-12T23:27:50.743Z,5.85
2022-08-12T23:30:31.829Z,6.40
2022-08-12T23:33:13.053Z,6.85
2022-08-12T23:35:53.917Z,5.03
2022-08-12T23:38:31.365Z,5.03
2022-08-12T23:41:05.136Z,8.25
2022-08-12T23:43:39.279Z,6.22
2022-08-12T23:46:12.359Z,9.23
2022-08-12T23:48:48.101Z,11.43
2022-08-12T23:51:22.705Z,5.78
2022-08-12T23:53:56.438Z,23.85
2022-08-12T23:56:27.586Z,9.40
2022-08-12T23:58:57.631Z,10.18
